createdAt,value
2023-03-29T00:02:07.413Z,99969.38
2023-03-29T00:04:34.364Z,99973.88
2023-03-29T00:07:04.548Z,99972.81
2023-03-29T00:09:33.133Z,99965.69
2023-03-29T00:12:01.163Z,99956.69
2023-03-29T00:14:30.491Z,99959.34
2023-03-29T00:16:57.985Z,99955.91
2023-03-29T00:19:24.607Z,99967.06
2023-03-29T00:21:51.154Z,99964.41
2023-03-29T00:24:17.808Z,99966.81
2023-03-29T00:26:46.439Z,99967.38
2023-03-29T00:29:12.957Z,99965.75
2023-03-29T00:31:39.791Z,99970.03
2023-03-29T00:34:06.344Z,99972.41
2023-03-29T00:36:32.929Z,99966.91
2023-03-29T00:38:59.456Z,99966.91
2023-03-29T00:41:26.201Z,99971.16
2023-03-29T00:44:01.149Z,99966.66
2023-03-29T00:46:30.539Z,99970.09
2023-03-29T00:49:12.908Z,99967.44
2023-03-29T00:51:41.595Z,99963.75
2023-03-29T00:54:14.853Z,99956.63
2023-03-29T00:56:44.449Z,99963.28
2023-03-29T00:59:15.727Z,99947.41
2023-03-29T01:01:50.448Z,99953.25
2023-03-29T01:04:19.879Z,99941.06
2023-03-29T01:07:06.126Z,99940.84
2023-03-29T01:09:37.508Z,99960.16
2023-03-29T01:12:13.208Z,99940.56
2023-03-29T01:14:45.983Z,99937.94
2023-03-29T01:17:12.940Z,99933.69
2023-03-29T01:19:46.115Z,99942.16
2023-03-29T01:22:38.703Z,99949.09
2023-03-29T01:25:17.388Z,99946.19
2023-03-29T01:28:04.070Z,99948.84
2023-03-29T01:30:37.402Z,99948.03
2023-03-29T01:33:11.603Z,99945.94
2023-03-29T01:36:11.778Z,99937.44
2023-03-29T01:38:59.410Z,99930.06
2023-03-29T01:41:39.760Z,99929.84
2023-03-29T01:44:15.350Z,99934.88
2023-03-29T01:46:55.484Z,99930.63
2023-03-29T01:49:34.640Z,99930.63
2023-03-29T01:52:13.281Z,99931.16
2023-03-29T01:54:53.309Z,99934.88
2023-03-29T01:57:21.827Z,99937.28
2023-03-29T01:59:50.853Z,99932.00
2023-03-29T02:02:20.537Z,99929.09
2023-03-29T02:04:52.350Z,99921.94
2023-03-29T02:07:25.030Z,99920.09
2023-03-29T02:09:53.773Z,99916.41
2023-03-29T02:12:21.383Z,99916.19
2023-03-29T02:14:47.920Z,99907.44
2023-03-29T02:17:18.474Z,99907.44
2023-03-29T02:19:51.980Z,99901.09
2023-03-29T02:22:24.012Z,99892.91
2023-03-29T02:24:54.628Z,99883.38
2023-03-29T02:27:21.346Z,99890.25
2023-03-29T02:29:48.016Z,99893.94
2023-03-29T02:32:25.795Z,99893.94
2023-03-29T02:35:01.877Z,99893.16
2023-03-29T02:37:31.890Z,99896.59
2023-03-29T02:39:59.550Z,99902.69
2023-03-29T02:42:27.917Z,99893.94
2023-03-29T02:44:58.266Z,99889.44
2023-03-29T02:47:37.217Z,99884.16
2023-03-29T02:50:04.382Z,99885.75
2023-03-29T02:52:35.896Z,99882.63
2023-03-29T02:55:05.485Z,99869.88
2023-03-29T02:57:32.479Z,99876.78
2023-03-29T03:00:01.088Z,99873.09
2023-03-29T03:02:27.974Z,99865.16
2023-03-29T03:04:54.718Z,99860.66
2023-03-29T03:07:21.618Z,99859.06
2023-03-29T03:09:48.486Z,99857.22
2023-03-29T03:12:15.112Z,99861.44
2023-03-29T03:14:41.621Z,99860.41
2023-03-29T03:17:08.314Z,99859.59
2023-03-29T03:19:34.958Z,99860.41
2023-03-29T03:22:01.484Z,99868.09
2023-03-29T03:24:32.608Z,99878.69
2023-03-29T03:26:59.358Z,99872.34
2023-03-29T03:29:26.131Z,99875.00
2023-03-29T03:31:54.148Z,99882.72
2023-03-29T03:34:21.326Z,99882.72
2023-03-29T03:36:47.866Z,99876.34
2023-03-29T03:39:14.431Z,99874.50
2023-03-29T03:41:41.121Z,99876.91
2023-03-29T03:44:07.682Z,99867.94
2023-03-29T03:46:34.268Z,99874.25
2023-03-29T03:49:00.815Z,99867.09
2023-03-29T03:51:27.314Z,99866.88
2023-03-29T03:53:53.914Z,99859.47
2023-03-29T03:56:20.563Z,99850.72
2023-03-29T03:58:48.270Z,99840.94
2023-03-29T04:01:14.886Z,99837.28
2023-03-29T04:03:41.635Z,99842.56
2023-03-29T04:06:09.772Z,99845.75
2023-03-29T04:08:36.376Z,99840.44
2023-03-29T04:11:03.108Z,99833.31
2023-03-29T04:13:30.165Z,99836.75
2023-03-29T04:15:59.384Z,99821.69
2023-03-29T04:18:27.717Z,99819.03
2023-03-29T04:20:54.449Z,99825.13
2023-03-29T04:23:21.077Z,99822.50
2023-03-29T04:25:47.730Z,99818.78
2023-03-29T04:28:14.352Z,99818.78
2023-03-29T04:30:41.440Z,99806.91
2023-03-29T04:33:08.759Z,99800.00
2023-03-29T04:35:35.458Z,99803.44
2023-03-29T04:38:02.067Z,99800.00
2023-03-29T04:40:29.146Z,99803.19
2023-03-29T04:42:55.801Z,99802.41
2023-03-29T04:45:22.557Z,99798.69
2023-03-29T04:47:49.610Z,99793.41
2023-03-29T04:50:16.211Z,99794.19
2023-03-29T04:52:42.775Z,99783.59
2023-03-29T04:55:09.527Z,99769.31
2023-03-29T04:57:36.043Z,99784.97
2023-03-29T05:00:08.394Z,99798.22
2023-03-29T05:02:35.007Z,99792.13
2023-03-29T05:05:01.593Z,99787.63
2023-03-29T05:07:28.151Z,99805.91
2023-03-29T05:09:54.662Z,99799.81
2023-03-29T05:12:21.279Z,99790.81
2023-03-29T05:14:47.835Z,99788.16
2023-03-29T05:17:14.526Z,99806.50
2023-03-29T05:19:41.363Z,99815.22
2023-03-29T05:22:09.122Z,99818.41
2023-03-29T05:24:36.169Z,99806.22
2023-03-29T05:27:02.747Z,99801.72
2023-03-29T05:29:29.380Z,99804.16
2023-03-29T05:31:55.893Z,99805.19
2023-03-29T05:34:22.577Z,99814.75
2023-03-29T05:36:49.343Z,99823.22
2023-03-29T05:39:15.900Z,99818.72
2023-03-29T05:41:42.792Z,99819.53
2023-03-29T05:44:09.441Z,99814.22
2023-03-29T05:46:36.010Z,99818.50
2023-03-29T05:49:02.795Z,99810.53
2023-03-29T05:51:29.422Z,99790.94
2023-03-29T05:53:55.922Z,99797.03
2023-03-29T05:56:22.657Z,99792.53
2023-03-29T05:58:53.739Z,99790.47
2023-03-29T06:01:22.627Z,99790.19
2023-03-29T06:03:49.519Z,99792.03
2023-03-29T06:06:16.768Z,99787.53
2023-03-29T06:08:44.595Z,99791.00
2023-03-29T06:11:13.438Z,99783.59
2023-03-29T06:13:42.254Z,99785.19
2023-03-29T06:16:10.838Z,99784.13
2023-03-29T06:18:40.233Z,99787.34
2023-03-29T06:21:09.454Z,99782.84
2023-03-29T06:23:36.527Z,99779.94
2023-03-29T06:26:03.354Z,99784.19
2023-03-29T06:28:29.972Z,99785.00
2023-03-29T06:30:56.869Z,99785.53
2023-03-29T06:33:25.236Z,99783.69
2023-03-29T06:35:51.896Z,99776.53
2023-03-29T06:38:19.526Z,99779.19
2023-03-29T06:40:47.312Z,99774.19
2023-03-29T06:43:14.250Z,99770.47
2023-03-29T06:45:40.974Z,99773.13
2023-03-29T06:48:08.071Z,99772.09
2023-03-29T06:50:35.450Z,99767.31
2023-03-29T06:53:02.301Z,99763.63
2023-03-29T06:55:28.904Z,99760.72
2023-03-29T06:57:55.587Z,99750.94
2023-03-29T07:00:28.392Z,99756.78
2023-03-29T07:02:58.038Z,99753.88
2023-03-29T07:05:27.262Z,99761.34
2023-03-29T07:08:00.019Z,99752.59
2023-03-29T07:10:32.414Z,99750.47
2023-03-29T07:13:03.267Z,99756.31
2023-03-29T07:15:30.010Z,99761.38
2023-03-29T07:17:57.579Z,99752.34
2023-03-29T07:20:24.976Z,99747.63
2023-03-29T07:22:51.901Z,99755.28
2023-03-29T07:25:19.851Z,99764.59
2023-03-29T07:27:47.207Z,99760.09
2023-03-29T07:30:21.140Z,99752.69
2023-03-29T07:32:48.181Z,99743.69
2023-03-29T07:35:15.246Z,99750.31
2023-03-29T07:37:42.869Z,99745.31
2023-03-29T07:40:24.620Z,99735.25
2023-03-29T07:42:54.266Z,99734.75
2023-03-29T07:45:26.556Z,99735.03
2023-03-29T07:47:57.738Z,99738.53
2023-03-29T07:50:25.789Z,99728.22
2023-03-29T07:52:52.757Z,99734.31
2023-03-29T07:55:19.923Z,99731.69
2023-03-29T07:57:46.486Z,99723.22
2023-03-29T08:00:17.171Z,99712.91
2023-03-29T08:02:48.167Z,99710.53
2023-03-29T08:05:21.040Z,99707.91
2023-03-29T08:07:56.467Z,99702.09
2023-03-29T08:10:23.314Z,99699.44
2023-03-29T08:12:50.818Z,99689.91
2023-03-29T08:15:17.563Z,99686.75
2023-03-29T08:17:44.587Z,99690.75
2023-03-29T08:20:15.013Z,99690.53
2023-03-29T08:22:41.603Z,99684.44
2023-03-29T08:25:08.976Z,99675.91
2023-03-29T08:27:37.564Z,99683.13
2023-03-29T08:30:09.513Z,99696.69
2023-03-29T08:32:37.631Z,99676.53
2023-03-29T08:35:06.736Z,99676.56
2023-03-29T08:37:33.421Z,99674.69
2023-03-29T08:40:00.927Z,99667.00
2023-03-29T08:42:40.994Z,99674.44
2023-03-29T08:45:14.078Z,99676.06
2023-03-29T08:48:01.621Z,99664.38
2023-03-29T08:50:38.439Z,99665.19
2023-03-29T08:53:12.929Z,99656.44
2023-03-29T08:55:43.389Z,99650.88
2023-03-29T08:58:17.948Z,99651.38
2023-03-29T09:00:49.838Z,99644.47
2023-03-29T09:03:23.027Z,99646.84
2023-03-29T09:06:19.368Z,99641.53
2023-03-29T09:08:48.189Z,99628.50
2023-03-29T09:11:24.065Z,99614.41
2023-03-29T09:13:59.707Z,99612.28
2023-03-29T09:16:52.334Z,99605.91
2023-03-29T09:19:30.470Z,99604.81
2023-03-29T09:22:10.224Z,99593.09
2023-03-29T09:24:55.339Z,99574.72
2023-03-29T09:27:34.477Z,99575.25
2023-03-29T09:30:26.289Z,99582.94
2023-03-29T09:32:54.244Z,99581.81
2023-03-29T09:35:37.230Z,99563.19
2023-03-29T09:38:09.538Z,99575.44
2023-03-29T09:40:47.702Z,99584.19
2023-03-29T09:43:18.454Z,99580.69
2023-03-29T09:45:51.279Z,99575.63
2023-03-29T09:48:19.741Z,99571.91
2023-03-29T09:50:51.229Z,99557.78
2023-03-29T09:53:19.399Z,99569.22
2023-03-29T09:55:50.356Z,99557.50
2023-03-29T09:58:20.155Z,99562.03
2023-03-29T10:00:48.472Z,99566.25
2023-03-29T10:03:20.180Z,99568.94
2023-03-29T10:05:48.084Z,99571.34
2023-03-29T10:08:22.474Z,99554.81
2023-03-29T10:10:49.639Z,99560.94
2023-03-29T10:13:28.776Z,99548.44
2023-03-29T10:16:07.512Z,99551.63
2023-03-29T10:18:41.637Z,99555.88
2023-03-29T10:21:13.266Z,99546.00
2023-03-29T10:23:39.800Z,99542.31
2023-03-29T10:26:16.747Z,99534.56
2023-03-29T10:28:43.583Z,99528.16
2023-03-29T10:31:19.574Z,99522.84
2023-03-29T10:33:55.551Z,99505.28
2023-03-29T10:36:25.788Z,99509.03
2023-03-29T10:38:56.742Z,99513.28
2023-03-29T10:41:24.764Z,99514.34
2023-03-29T10:43:51.776Z,99509.31
2023-03-29T10:46:21.400Z,99502.91
2023-03-29T10:48:50.653Z,99488.03
2023-03-29T10:51:18.882Z,99487.22
2023-03-29T10:53:45.832Z,99483.50
2023-03-29T10:56:15.435Z,99478.44
2023-03-29T10:58:54.277Z,99476.56
2023-03-29T11:01:32.713Z,99473.91
2023-03-29T11:04:16.300Z,99469.66
2023-03-29T11:07:22.684Z,99466.75
2023-03-29T11:09:54.948Z,99464.88
2023-03-29T11:12:58.824Z,99464.56
2023-03-29T11:15:57.027Z,99469.91
2023-03-29T11:18:54.579Z,99460.84
2023-03-29T11:21:52.157Z,99444.59
2023-03-29T11:24:54.216Z,99441.16
2023-03-29T11:27:36.510Z,99443.00
2023-03-29T11:30:12.229Z,99448.31
2023-03-29T11:33:02.971Z,99453.09
2023-03-29T11:35:53.988Z,99434.19
2023-03-29T11:38:27.982Z,99426.47
2023-03-29T11:41:13.787Z,99428.28
2023-03-29T11:44:13.392Z,99422.94
2023-03-29T11:47:03.404Z,99419.59
2023-03-29T11:49:40.464Z,99415.69
2023-03-29T11:52:17.647Z,99420.75
2023-03-29T11:55:06.961Z,99411.13
2023-03-29T11:57:53.862Z,99403.38
2023-03-29T12:00:30.486Z,99404.09
2023-03-29T12:03:13.306Z,99402.44
2023-03-29T12:05:45.547Z,99403.47
2023-03-29T12:08:14.957Z,99398.38
2023-03-29T12:10:48.086Z,99398.91
2023-03-29T12:13:14.555Z,99401.25
2023-03-29T12:15:49.893Z,99400.69
2023-03-29T12:18:24.150Z,99390.28
2023-03-29T12:21:01.942Z,99375.56
2023-03-29T12:23:32.775Z,99372.06
2023-03-29T12:26:21.148Z,99371.78
2023-03-29T12:29:09.664Z,99365.91
2023-03-29T12:31:48.298Z,99361.06
2023-03-29T12:34:35.368Z,99357.03
2023-03-29T12:37:04.870Z,99355.69
2023-03-29T12:39:32.873Z,99358.06
2023-03-29T12:42:21.091Z,99353.81
2023-03-29T12:45:01.634Z,99351.38
2023-03-29T12:47:35.942Z,99350.84
2023-03-29T12:50:04.598Z,99332.19
2023-03-29T12:52:35.942Z,99320.44
2023-03-29T12:55:25.265Z,99319.38
2023-03-29T12:58:08.415Z,99334.28
2023-03-29T13:00:42.248Z,99333.19
2023-03-29T13:03:27.380Z,99315.88
2023-03-29T13:06:05.416Z,99323.09
2023-03-29T13:08:36.710Z,99314.63
2023-03-29T13:11:05.285Z,99308.75
2023-03-29T13:13:37.379Z,99302.16
2023-03-29T13:16:14.663Z,99295.22
2023-03-29T13:19:08.136Z,99288.00
2023-03-29T13:22:25.295Z,99269.34
2023-03-29T13:25:06.776Z,99275.75
2023-03-29T13:28:08.021Z,99267.50
2023-03-29T13:31:01.837Z,99265.31
2023-03-29T13:33:43.550Z,99268.50
2023-03-29T13:36:52.287Z,99275.13
2023-03-29T13:39:29.062Z,99258.84
2023-03-29T13:42:37.736Z,99252.63
2023-03-29T13:45:23.181Z,99252.06
2023-03-29T13:48:04.335Z,99257.09
2023-03-29T13:50:51.457Z,99264.22
2023-03-29T13:53:33.459Z,99264.13
2023-03-29T13:56:01.263Z,99254.00
2023-03-29T13:58:48.920Z,99252.31
2023-03-29T14:01:36.413Z,99258.34
2023-03-29T14:04:07.268Z,99238.31
2023-03-29T14:06:37.604Z,99248.41
2023-03-29T14:09:08.492Z,99241.69
2023-03-29T14:11:36.230Z,99230.94
2023-03-29T14:14:08.580Z,99223.16
2023-03-29T14:16:39.037Z,99216.34
2023-03-29T14:19:19.010Z,99191.94
2023-03-29T14:21:46.417Z,99186.22
2023-03-29T14:24:20.818Z,99175.66
2023-03-29T14:26:48.091Z,99172.88
2023-03-29T14:29:15.797Z,99161.34
2023-03-29T14:31:43.077Z,99159.34
2023-03-29T14:34:18.391Z,99146.97
2023-03-29T14:36:48.994Z,99146.38
2023-03-29T14:39:18.916Z,99145.22
2023-03-29T14:41:54.818Z,99135.22
2023-03-29T14:44:25.037Z,99128.69
2023-03-29T14:46:52.040Z,99133.13
2023-03-29T14:49:20.793Z,99130.84
2023-03-29T14:51:49.256Z,99122.88
2023-03-29T14:54:37.109Z,99116.03
2023-03-29T14:57:07.250Z,99117.22
2023-03-29T14:59:41.296Z,99111.97
2023-03-29T15:02:34.135Z,99109.94
2023-03-29T15:05:23.204Z,99100.41
2023-03-29T15:07:51.704Z,99094.47
2023-03-29T15:10:19.303Z,99090.09
2023-03-29T15:12:46.612Z,99085.72
2023-03-29T15:15:13.860Z,99095.31
2023-03-29T15:17:51.027Z,99095.50
2023-03-29T15:20:24.008Z,99104.78
2023-03-29T15:22:58.848Z,99097.56
2023-03-29T15:25:34.192Z,99097.25
2023-03-29T15:28:01.797Z,99076.16
2023-03-29T15:30:44.221Z,99066.72
2023-03-29T15:33:21.272Z,99080.88
2023-03-29T15:35:51.950Z,99071.47
2023-03-29T15:38:23.421Z,99060.34
2023-03-29T15:40:54.360Z,99060.09
2023-03-29T15:43:22.504Z,99060.78
2023-03-29T15:45:49.196Z,99062.53
2023-03-29T15:48:19.028Z,99052.59
2023-03-29T15:50:45.769Z,99059.25
2023-03-29T15:53:15.422Z,99047.25
2023-03-29T15:55:45.993Z,99057.50
2023-03-29T15:58:19.080Z,99060.00
2023-03-29T16:00:51.366Z,99050.69
2023-03-29T16:03:18.337Z,99045.94
2023-03-29T16:05:46.420Z,99045.75
2023-03-29T16:08:13.755Z,99031.72
2023-03-29T16:10:41.647Z,99013.91
2023-03-29T16:13:12.192Z,99001.94
2023-03-29T16:15:41.299Z,99002.84
2023-03-29T16:18:08.304Z,99006.63
2023-03-29T16:20:34.943Z,99009.13
2023-03-29T16:23:01.578Z,99001.72
2023-03-29T16:25:28.395Z,99002.03
2023-03-29T16:27:54.893Z,99002.31
2023-03-29T16:30:21.528Z,98999.19
2023-03-29T16:32:48.130Z,98994.13
2023-03-29T16:35:41.325Z,98986.75
2023-03-29T16:38:09.275Z,98990.50
2023-03-29T16:40:36.634Z,98992.69
2023-03-29T16:43:03.546Z,98992.97
2023-03-29T16:45:30.133Z,98980.72
2023-03-29T16:47:57.091Z,98966.56
2023-03-29T16:50:23.893Z,98966.38
2023-03-29T16:52:52.560Z,98953.34
2023-03-29T16:55:19.359Z,98954.91
2023-03-29T16:57:47.244Z,98963.72
2023-03-29T17:00:16.400Z,98957.25
2023-03-29T17:02:43.813Z,98962.59
2023-03-29T17:05:12.021Z,98954.13
2023-03-29T17:07:39.360Z,98954.91
2023-03-29T17:10:08.294Z,98960.56
2023-03-29T17:12:35.778Z,98953.16
2023-03-29T17:15:03.929Z,98948.91
2023-03-29T17:17:30.801Z,98946.84
2023-03-29T17:19:58.550Z,98951.69
2023-03-29T17:22:25.584Z,98945.09
2023-03-29T17:24:52.256Z,98941.47
2023-03-29T17:27:19.058Z,98954.00
2023-03-29T17:29:45.764Z,98938.13
2023-03-29T17:32:12.348Z,98941.88
2023-03-29T17:34:39.002Z,98940.91
2023-03-29T17:37:05.836Z,98938.06
2023-03-29T17:39:33.271Z,98932.22
2023-03-29T17:41:59.846Z,98934.91
2023-03-29T17:44:27.063Z,98935.81
2023-03-29T17:46:53.681Z,98929.22
2023-03-29T17:49:20.485Z,98932.19
2023-03-29T17:51:47.055Z,98925.09
2023-03-29T17:54:13.655Z,98923.00
2023-03-29T17:56:40.364Z,98920.66
2023-03-29T17:59:06.981Z,98923.94
2023-03-29T18:01:33.682Z,98921.56
2023-03-29T18:04:00.573Z,98922.97
2023-03-29T18:06:27.262Z,98910.22
2023-03-29T18:08:53.758Z,98915.09
2023-03-29T18:11:25.703Z,98905.75
2023-03-29T18:13:53.183Z,98909.84
2023-03-29T18:16:21.377Z,98914.69
2023-03-29T18:18:48.583Z,98917.34
2023-03-29T18:21:16.828Z,98904.31
2023-03-29T18:23:47.959Z,98909.47
2023-03-29T18:26:16.123Z,98915.91
2023-03-29T18:28:46.602Z,98912.25
2023-03-29T18:31:13.862Z,98900.00
2023-03-29T18:33:40.627Z,98912.38
2023-03-29T18:36:10.875Z,98914.25
2023-03-29T18:38:40.468Z,98911.88
2023-03-29T18:41:08.661Z,98907.47
2023-03-29T18:43:37.047Z,98903.50
2023-03-29T18:46:04.040Z,98909.94
2023-03-29T18:48:31.250Z,98906.47
2023-03-29T18:50:58.485Z,98905.50
2023-03-29T18:53:25.144Z,98905.31
2023-03-29T18:55:51.775Z,98906.41
2023-03-29T18:58:20.401Z,98919.47
2023-03-29T19:00:46.957Z,98917.38
2023-03-29T19:03:13.592Z,98905.13
2023-03-29T19:05:40.506Z,98910.38
2023-03-29T19:08:09.042Z,98905.53
2023-03-29T19:10:37.117Z,98906.31
2023-03-29T19:13:04.535Z,98903.91
2023-03-29T19:15:32.493Z,98897.47
2023-03-29T19:17:59.296Z,98896.69
2023-03-29T19:20:25.913Z,98895.09
2023-03-29T19:22:53.262Z,98898.06
2023-03-29T19:25:20.044Z,98897.56
2023-03-29T19:27:46.777Z,98894.09
2023-03-29T19:30:14.308Z,98893.91
2023-03-29T19:32:41.083Z,98889.69
2023-03-29T19:35:09.564Z,98886.22
2023-03-29T19:37:36.264Z,98878.53
2023-03-29T19:40:03.769Z,98872.41
2023-03-29T19:42:30.393Z,98875.09
2023-03-29T19:44:56.994Z,98875.09
2023-03-29T19:47:23.533Z,98871.59
2023-03-29T19:49:50.340Z,98873.47
2023-03-29T19:52:16.886Z,98867.66
2023-03-29T19:54:44.228Z,98871.44
2023-03-29T19:57:10.848Z,98873.78
2023-03-29T19:59:38.823Z,98871.44
2023-03-29T20:02:05.432Z,98864.50
2023-03-29T20:04:33.274Z,98865.59
2023-03-29T20:07:00.110Z,98857.41
2023-03-29T20:09:26.767Z,98859.59
2023-03-29T20:11:53.325Z,98860.19
2023-03-29T20:14:20.182Z,98849.34
2023-03-29T20:16:46.763Z,98853.09
2023-03-29T20:19:17.899Z,98846.78
2023-03-29T20:21:44.605Z,98845.19
2023-03-29T20:24:11.436Z,98842.63
2023-03-29T20:26:38.008Z,98832.75
2023-03-29T20:29:04.679Z,98836.00
2023-03-29T20:31:31.453Z,98841.66
2023-03-29T20:33:58.094Z,98838.00
2023-03-29T20:36:26.652Z,98835.66
2023-03-29T20:38:56.046Z,98821.03
2023-03-29T20:41:22.927Z,98818.94
2023-03-29T20:43:58.150Z,98815.78
2023-03-29T20:46:33.149Z,98811.06
2023-03-29T20:49:01.920Z,98812.63
2023-03-29T20:51:31.825Z,98806.31
2023-03-29T20:54:04.713Z,98812.22
2023-03-29T20:56:34.364Z,98817.09
2023-03-29T20:59:00.970Z,98807.00
2023-03-29T21:01:29.630Z,98805.44
2023-03-29T21:03:56.564Z,98811.38
2023-03-29T21:06:24.572Z,98800.22
2023-03-29T21:08:52.603Z,98787.97
2023-03-29T21:11:21.013Z,98799.72
2023-03-29T21:13:47.706Z,98792.31
2023-03-29T21:16:14.476Z,98791.06
2023-03-29T21:18:41.652Z,98790.34
2023-03-29T21:21:09.467Z,98785.94
2023-03-29T21:23:36.583Z,98788.91
2023-03-29T21:26:04.497Z,98782.78
2023-03-29T21:28:31.401Z,98776.16
2023-03-29T21:30:57.938Z,98773.78
2023-03-29T21:33:24.876Z,98778.31
2023-03-29T21:35:51.500Z,98771.44
2023-03-29T21:38:18.116Z,98773.63
2023-03-29T21:40:44.699Z,98771.22
2023-03-29T21:43:11.273Z,98761.47
2023-03-29T21:45:37.978Z,98761.00
2023-03-29T21:48:04.756Z,98754.06
2023-03-29T21:50:33.752Z,98755.16
2023-03-29T21:53:01.883Z,98752.00
2023-03-29T21:55:28.719Z,98746.38
2023-03-29T21:57:55.241Z,98749.31
2023-03-29T22:00:22.417Z,98749.16
2023-03-29T22:02:49.179Z,98744.91
2023-03-29T22:05:16.301Z,98753.66
2023-03-29T22:07:43.093Z,98748.34
2023-03-29T22:10:11.734Z,98744.41
2023-03-29T22:12:39.195Z,98747.66
2023-03-29T22:15:07.400Z,98741.56
2023-03-29T22:17:35.965Z,98740.78
2023-03-29T22:20:04.516Z,98736.53
2023-03-29T22:22:31.125Z,98733.69
2023-03-29T22:24:57.650Z,98729.41
2023-03-29T22:27:24.190Z,98723.03
2023-03-29T22:29:50.801Z,98729.72
2023-03-29T22:32:17.377Z,98715.91
2023-03-29T22:34:43.891Z,98722.31
2023-03-29T22:37:10.420Z,98710.69
2023-03-29T22:39:37.432Z,98709.91
2023-03-29T22:42:04.195Z,98714.75
2023-03-29T22:44:33.940Z,98708.94
2023-03-29T22:47:00.603Z,98714.25
2023-03-29T22:49:27.224Z,98714.84
2023-03-29T22:51:53.778Z,98707.63
2023-03-29T22:54:20.669Z,98708.72
2023-03-29T22:56:47.232Z,98703.41
2023-03-29T22:59:14.148Z,98694.94
2023-03-29T23:01:41.019Z,98693.66
2023-03-29T23:04:08.204Z,98693.66
2023-03-29T23:06:34.794Z,98692.88
2023-03-29T23:09:01.351Z,98694.25
2023-03-29T23:11:28.096Z,98693.97
2023-03-29T23:13:55.199Z,98688.63
2023-03-29T23:16:21.873Z,98683.59
2023-03-29T23:18:48.879Z,98675.59
2023-03-29T23:21:15.422Z,98679.38
2023-03-29T23:23:42.300Z,98669.81
2023-03-29T23:26:09.224Z,98669.03
2023-03-29T23:28:36.113Z,98667.16
2023-03-29T23:31:11.457Z,98667.75
2023-03-29T23:33:41.187Z,98663.78
2023-03-29T23:36:26.127Z,98667.53
2023-03-29T23:38:53.588Z,98657.78
2023-03-29T23:41:20.386Z,98663.09
2023-03-29T23:43:47.450Z,98651.16
2023-03-29T23:46:16.581Z,98654.13
2023-03-29T23:48:48.965Z,98654.13
2023-03-29T23:51:18.975Z,98650.97
2023-03-29T23:53:46.596Z,98650.97
2023-03-29T23:56:13.261Z,98648.31
2023-03-29T23:58:39.875Z,98645.97
